sensor_id;sensor_type;location;lat;lon;timestamp;P1;durP1;ratioP1;P2;durP2;ratioP2
55067;SDS011;40965;52.368;9.712;2023-05-07T00:01:38;30.42;;;16.23;;
55067;SDS011;40965;52.368;9.712;2023-05-07T00:04:05;21.13;;;16.10;;
55067;SDS011;40965;52.368;9.712;2023-05-07T00:06:32;24.83;;;17.23;;
55067;SDS011;40965;52.368;9.712;2023-05-07T00:08:59;24.92;;;16.70;;
55067;SDS011;40965;52.368;9.712;2023-05-07T00:11:26;21.30;;;16.35;;
55067;SDS011;40965;52.368;9.712;2023-05-07T00:13:53;22.90;;;17.27;;
55067;SDS011;40965;52.368;9.712;2023-05-07T00:16:20;21.05;;;15.05;;
55067;SDS011;40965;52.368;9.712;2023-05-07T00:18:46;22.38;;;14.88;;
55067;SDS011;40965;52.368;9.712;2023-05-07T00:21:16;23.95;;;16.00;;
55067;SDS011;40965;52.368;9.712;2023-05-07T00:23:43;22.35;;;16.38;;
55067;SDS011;40965;52.368;9.712;2023-05-07T00:26:09;21.65;;;15.63;;
55067;SDS011;40965;52.368;9.712;2023-05-07T00:28:36;21.98;;;15.77;;
55067;SDS011;40965;52.368;9.712;2023-05-07T00:31:02;26.27;;;17.20;;
55067;SDS011;40965;52.368;9.712;2023-05-07T00:33:29;26.17;;;16.83;;
55067;SDS011;40965;52.368;9.712;2023-05-07T00:35:55;30.00;;;18.00;;
55067;SDS011;40965;52.368;9.712;2023-05-07T00:38:21;27.17;;;16.45;;
55067;SDS011;40965;52.368;9.712;2023-05-07T00:40:48;23.85;;;16.38;;
55067;SDS011;40965;52.368;9.712;2023-05-07T00:43:16;22.10;;;16.08;;
55067;SDS011;40965;52.368;9.712;2023-05-07T00:45:42;30.67;;;18.73;;
55067;SDS011;40965;52.368;9.712;2023-05-07T00:48:09;23.55;;;17.08;;
55067;SDS011;40965;52.368;9.712;2023-05-07T00:50:36;26.80;;;17.45;;
55067;SDS011;40965;52.368;9.712;2023-05-07T00:53:02;26.17;;;18.17;;
55067;SDS011;40965;52.368;9.712;2023-05-07T00:55:30;27.92;;;18.75;;
55067;SDS011;40965;52.368;9.712;2023-05-07T00:57:56;23.65;;;16.25;;
55067;SDS011;40965;52.368;9.712;2023-05-07T01:00:23;25.83;;;17.20;;
55067;SDS011;40965;52.368;9.712;2023-05-07T01:02:50;23.25;;;17.33;;
55067;SDS011;40965;52.368;9.712;2023-05-07T01:05:17;25.33;;;17.42;;
55067;SDS011;40965;52.368;9.712;2023-05-07T01:07:46;25.70;;;17.10;;
55067;SDS011;40965;52.368;9.712;2023-05-07T01:10:13;25.85;;;18.15;;
55067;SDS011;40965;52.368;9.712;2023-05-07T01:12:40;26.15;;;17.33;;
55067;SDS011;40965;52.368;9.712;2023-05-07T01:15:08;28.73;;;17.83;;
55067;SDS011;40965;52.368;9.712;2023-05-07T01:17:35;23.92;;;16.60;;
55067;SDS011;40965;52.368;9.712;2023-05-07T01:20:04;26.95;;;16.85;;
55067;SDS011;40965;52.368;9.712;2023-05-07T01:22:37;27.98;;;17.08;;
55067;SDS011;40965;52.368;9.712;2023-05-07T01:25:05;26.10;;;16.85;;
55067;SDS011;40965;52.368;9.712;2023-05-07T01:27:33;27.05;;;17.17;;
55067;SDS011;40965;52.368;9.712;2023-05-07T01:30:01;25.98;;;18.55;;
55067;SDS011;40965;52.368;9.712;2023-05-07T01:32:36;24.50;;;17.05;;
55067;SDS011;40965;52.368;9.712;2023-05-07T01:35:10;25.92;;;16.58;;
55067;SDS011;40965;52.368;9.712;2023-05-07T01:37:42;28.48;;;17.58;;
55067;SDS011;40965;52.368;9.712;2023-05-07T01:40:08;26.30;;;18.15;;
55067;SDS011;40965;52.368;9.712;2023-05-07T01:42:39;26.35;;;17.50;;
55067;SDS011;40965;52.368;9.712;2023-05-07T01:45:08;26.70;;;17.13;;
55067;SDS011;40965;52.368;9.712;2023-05-07T01:47:36;28.73;;;17.40;;
55067;SDS011;40965;52.368;9.712;2023-05-07T01:50:05;31.65;;;18.88;;
55067;SDS011;40965;52.368;9.712;2023-05-07T01:52:33;23.80;;;15.70;;
55067;SDS011;40965;52.368;9.712;2023-05-07T01:55:00;24.08;;;16.45;;
55067;SDS011;40965;52.368;9.712;2023-05-07T01:57:27;24.33;;;16.63;;
55067;SDS011;40965;52.368;9.712;2023-05-07T01:59:53;25.13;;;15.70;;
55067;SDS011;40965;52.368;9.712;2023-05-07T02:02:20;24.50;;;15.45;;
55067;SDS011;40965;52.368;9.712;2023-05-07T02:04:46;23.83;;;15.52;;
55067;SDS011;40965;52.368;9.712;2023-05-07T02:07:12;22.70;;;14.57;;
55067;SDS011;40965;52.368;9.712;2023-05-07T02:09:39;23.92;;;14.90;;
55067;SDS011;40965;52.368;9.712;2023-05-07T02:12:05;20.77;;;13.85;;
55067;SDS011;40965;52.368;9.712;2023-05-07T02:14:32;23.55;;;14.75;;
55067;SDS011;40965;52.368;9.712;2023-05-07T02:16:58;20.58;;;13.35;;
55067;SDS011;40965;52.368;9.712;2023-05-07T02:19:25;23.95;;;13.50;;
55067;SDS011;40965;52.368;9.712;2023-05-07T02:21:51;19.98;;;12.50;;
55067;SDS011;40965;52.368;9.712;2023-05-07T02:24:18;21.23;;;13.00;;
55067;SDS011;40965;52.368;9.712;2023-05-07T02:26:45;19.10;;;12.63;;
55067;SDS011;40965;52.368;9.712;2023-05-07T02:29:11;14.48;;;9.98;;
55067;SDS011;40965;52.368;9.712;2023-05-07T02:31:37;17.33;;;11.05;;
55067;SDS011;40965;52.368;9.712;2023-05-07T02:34:04;16.08;;;11.00;;
55067;SDS011;40965;52.368;9.712;2023-05-07T02:36:31;13.98;;;10.15;;
55067;SDS011;40965;52.368;9.712;2023-05-07T02:38:57;14.77;;;10.23;;
55067;SDS011;40965;52.368;9.712;2023-05-07T02:41:25;12.50;;;9.50;;
55067;SDS011;40965;52.368;9.712;2023-05-07T02:43:53;14.30;;;9.82;;
55067;SDS011;40965;52.368;9.712;2023-05-07T02:46:19;12.23;;;8.82;;
55067;SDS011;40965;52.368;9.712;2023-05-07T02:48:46;10.05;;;8.65;;
55067;SDS011;40965;52.368;9.712;2023-05-07T02:51:12;11.93;;;8.82;;
55067;SDS011;40965;52.368;9.712;2023-05-07T02:53:39;14.07;;;9.40;;
55067;SDS011;40965;52.368;9.712;2023-05-07T02:56:05;14.57;;;9.77;;
55067;SDS011;40965;52.368;9.712;2023-05-07T02:58:32;13.73;;;9.20;;
55067;SDS011;40965;52.368;9.712;2023-05-07T03:00:59;13.25;;;8.82;;
55067;SDS011;40965;52.368;9.712;2023-05-07T03:03:25;11.98;;;8.45;;
55067;SDS011;40965;52.368;9.712;2023-05-07T03:05:52;13.73;;;9.30;;
55067;SDS011;40965;52.368;9.712;2023-05-07T03:08:18;13.13;;;8.98;;
55067;SDS011;40965;52.368;9.712;2023-05-07T03:10:44;12.75;;;9.48;;
55067;SDS011;40965;52.368;9.712;2023-05-07T03:13:11;15.68;;;9.63;;
55067;SDS011;40965;52.368;9.712;2023-05-07T03:15:37;14.88;;;10.10;;
55067;SDS011;40965;52.368;9.712;2023-05-07T03:18:04;16.02;;;9.85;;
55067;SDS011;40965;52.368;9.712;2023-05-07T03:20:30;11.80;;;9.32;;
55067;SDS011;40965;52.368;9.712;2023-05-07T03:22:57;13.10;;;10.07;;
55067;SDS011;40965;52.368;9.712;2023-05-07T03:25:24;13.18;;;8.85;;
55067;SDS011;40965;52.368;9.712;2023-05-07T03:27:51;13.63;;;9.13;;
55067;SDS011;40965;52.368;9.712;2023-05-07T03:30:17;13.60;;;9.13;;
55067;SDS011;40965;52.368;9.712;2023-05-07T03:32:45;11.98;;;8.85;;
55067;SDS011;40965;52.368;9.712;2023-05-07T03:35:11;11.77;;;8.73;;
55067;SDS011;40965;52.368;9.712;2023-05-07T03:37:38;12.43;;;8.25;;
55067;SDS011;40965;52.368;9.712;2023-05-07T03:40:05;12.80;;;8.30;;
55067;SDS011;40965;52.368;9.712;2023-05-07T03:42:32;13.32;;;8.63;;
55067;SDS011;40965;52.368;9.712;2023-05-07T03:44:59;12.52;;;8.80;;
55067;SDS011;40965;52.368;9.712;2023-05-07T03:47:26;12.95;;;9.23;;
55067;SDS011;40965;52.368;9.712;2023-05-07T03:49:52;10.27;;;8.07;;
55067;SDS011;40965;52.368;9.712;2023-05-07T03:52:19;10.05;;;8.48;;
55067;SDS011;40965;52.368;9.712;2023-05-07T03:54:50;10.38;;;7.72;;
55067;SDS011;40965;52.368;9.712;2023-05-07T03:57:18;13.30;;;8.65;;
55067;SDS011;40965;52.368;9.712;2023-05-07T03:59:45;12.77;;;9.13;;
55067;SDS011;40965;52.368;9.712;2023-05-07T04:02:12;9.50;;;7.30;;
55067;SDS011;40965;52.368;9.712;2023-05-07T04:04:38;10.68;;;7.60;;
55067;SDS011;40965;52.368;9.712;2023-05-07T04:07:05;10.43;;;7.45;;
55067;SDS011;40965;52.368;9.712;2023-05-07T04:09:32;9.13;;;6.90;;
55067;SDS011;40965;52.368;9.712;2023-05-07T04:11:58;10.85;;;8.32;;
55067;SDS011;40965;52.368;9.712;2023-05-07T04:14:26;9.85;;;7.70;;
55067;SDS011;40965;52.368;9.712;2023-05-07T04:16:52;12.68;;;8.85;;
55067;SDS011;40965;52.368;9.712;2023-05-07T04:19:19;10.73;;;8.90;;
55067;SDS011;40965;52.368;9.712;2023-05-07T04:21:45;13.18;;;8.77;;
55067;SDS011;40965;52.368;9.712;2023-05-07T04:24:12;12.23;;;7.75;;
55067;SDS011;40965;52.368;9.712;2023-05-07T04:26:39;12.38;;;9.05;;
55067;SDS011;40965;52.368;9.712;2023-05-07T04:29:05;12.18;;;8.43;;
55067;SDS011;40965;52.368;9.712;2023-05-07T04:31:32;12.07;;;8.45;;
55067;SDS011;40965;52.368;9.712;2023-05-07T04:33:58;11.75;;;9.10;;
55067;SDS011;40965;52.368;9.712;2023-05-07T04:36:26;12.45;;;8.73;;
55067;SDS011;40965;52.368;9.712;2023-05-07T04:38:54;9.30;;;7.43;;
55067;SDS011;40965;52.368;9.712;2023-05-07T04:41:23;12.27;;;8.68;;
55067;SDS011;40965;52.368;9.712;2023-05-07T04:43:49;10.32;;;7.97;;
55067;SDS011;40965;52.368;9.712;2023-05-07T04:46:16;13.13;;;9.18;;
55067;SDS011;40965;52.368;9.712;2023-05-07T04:48:43;12.73;;;8.98;;
55067;SDS011;40965;52.368;9.712;2023-05-07T04:51:09;11.95;;;9.63;;
55067;SDS011;40965;52.368;9.712;2023-05-07T04:53:36;12.98;;;9.02;;
55067;SDS011;40965;52.368;9.712;2023-05-07T04:56:03;13.50;;;10.07;;
55067;SDS011;40965;52.368;9.712;2023-05-07T04:58:30;12.27;;;9.82;;
55067;SDS011;40965;52.368;9.712;2023-05-07T05:00:57;15.90;;;10.35;;
55067;SDS011;40965;52.368;9.712;2023-05-07T05:03:25;15.43;;;10.10;;
55067;SDS011;40965;52.368;9.712;2023-05-07T05:05:52;11.57;;;8.73;;
55067;SDS011;40965;52.368;9.712;2023-05-07T05:08:19;14.90;;;9.75;;
55067;SDS011;40965;52.368;9.712;2023-05-07T05:10:45;10.15;;;8.60;;
55067;SDS011;40965;52.368;9.712;2023-05-07T05:13:13;13.55;;;9.98;;
55067;SDS011;40965;52.368;9.712;2023-05-07T05:15:40;13.80;;;8.98;;
55067;SDS011;40965;52.368;9.712;2023-05-07T05:18:06;12.50;;;8.48;;
55067;SDS011;40965;52.368;9.712;2023-05-07T05:20:33;10.82;;;7.78;;
55067;SDS011;40965;52.368;9.712;2023-05-07T05:23:00;10.85;;;8.00;;
55067;SDS011;40965;52.368;9.712;2023-05-07T05:25:26;9.75;;;7.88;;
55067;SDS011;40965;52.368;9.712;2023-05-07T05:27:53;15.13;;;8.70;;
55067;SDS011;40965;52.368;9.712;2023-05-07T05:30:20;14.43;;;8.35;;
55067;SDS011;40965;52.368;9.712;2023-05-07T05:32:46;11.68;;;8.35;;
55067;SDS011;40965;52.368;9.712;2023-05-07T05:35:13;12.75;;;8.73;;
55067;SDS011;40965;52.368;9.712;2023-05-07T05:37:39;10.93;;;9.10;;
55067;SDS011;40965;52.368;9.712;2023-05-07T05:40:07;10.90;;;8.35;;
55067;SDS011;40965;52.368;9.712;2023-05-07T05:42:34;10.93;;;7.10;;
55067;SDS011;40965;52.368;9.712;2023-05-07T05:45:00;9.80;;;7.05;;
55067;SDS011;40965;52.368;9.712;2023-05-07T05:47:27;10.45;;;7.68;;
55067;SDS011;40965;52.368;9.712;2023-05-07T05:50:22;11.85;;;8.32;;
55067;SDS011;40965;52.368;9.712;2023-05-07T05:52:48;10.73;;;8.20;;
55067;SDS011;40965;52.368;9.712;2023-05-07T05:55:34;9.93;;;7.70;;
55067;SDS011;40965;52.368;9.712;2023-05-07T05:58:02;9.30;;;7.25;;
55067;SDS011;40965;52.368;9.712;2023-05-07T06:00:29;9.25;;;8.00;;
55067;SDS011;40965;52.368;9.712;2023-05-07T06:03:00;11.13;;;7.75;;
55067;SDS011;40965;52.368;9.712;2023-05-07T06:05:27;8.95;;;7.18;;
55067;SDS011;40965;52.368;9.712;2023-05-07T06:07:53;10.63;;;7.47;;
55067;SDS011;40965;52.368;9.712;2023-05-07T06:10:22;9.02;;;7.30;;
55067;SDS011;40965;52.368;9.712;2023-05-07T06:12:49;11.73;;;7.72;;
55067;SDS011;40965;52.368;9.712;2023-05-07T06:15:16;10.20;;;7.70;;
55067;SDS011;40965;52.368;9.712;2023-05-07T06:17:42;8.75;;;7.18;;
55067;SDS011;40965;52.368;9.712;2023-05-07T06:20:09;12.98;;;7.32;;
55067;SDS011;40965;52.368;9.712;2023-05-07T06:22:36;10.45;;;7.47;;
55067;SDS011;40965;52.368;9.712;2023-05-07T06:25:05;10.25;;;7.90;;
55067;SDS011;40965;52.368;9.712;2023-05-07T06:27:32;10.02;;;7.13;;
55067;SDS011;40965;52.368;9.712;2023-05-07T06:29:59;8.60;;;7.35;;
55067;SDS011;40965;52.368;9.712;2023-05-07T06:32:26;9.07;;;7.47;;
55067;SDS011;40965;52.368;9.712;2023-05-07T06:34:52;8.07;;;6.63;;
55067;SDS011;40965;52.368;9.712;2023-05-07T06:37:22;9.57;;;6.70;;
55067;SDS011;40965;52.368;9.712;2023-05-07T06:39:54;6.85;;;6.18;;
55067;SDS011;40965;52.368;9.712;2023-05-07T06:42:21;8.90;;;7.30;;
55067;SDS011;40965;52.368;9.712;2023-05-07T06:44:47;7.07;;;6.38;;
55067;SDS011;40965;52.368;9.712;2023-05-07T06:47:14;7.00;;;6.05;;
55067;SDS011;40965;52.368;9.712;2023-05-07T06:49:40;6.97;;;5.90;;
55067;SDS011;40965;52.368;9.712;2023-05-07T06:52:07;7.90;;;5.80;;
55067;SDS011;40965;52.368;9.712;2023-05-07T06:54:34;8.10;;;7.30;;
55067;SDS011;40965;52.368;9.712;2023-05-07T06:57:01;10.00;;;6.75;;
55067;SDS011;40965;52.368;9.712;2023-05-07T06:59:27;7.90;;;6.97;;
55067;SDS011;40965;52.368;9.712;2023-05-07T07:01:54;6.43;;;5.70;;
55067;SDS011;40965;52.368;9.712;2023-05-07T07:04:20;8.35;;;7.50;;
55067;SDS011;40965;52.368;9.712;2023-05-07T07:06:49;8.10;;;6.57;;
55067;SDS011;40965;52.368;9.712;2023-05-07T07:09:18;10.30;;;7.90;;
55067;SDS011;40965;52.368;9.712;2023-05-07T07:11:44;8.75;;;7.18;;
55067;SDS011;40965;52.368;9.712;2023-05-07T07:14:11;8.75;;;7.85;;
55067;SDS011;40965;52.368;9.712;2023-05-07T07:16:38;9.18;;;7.88;;
55067;SDS011;40965;52.368;9.712;2023-05-07T07:19:05;10.63;;;7.43;;
55067;SDS011;40965;52.368;9.712;2023-05-07T07:21:33;9.20;;;8.30;;
55067;SDS011;40965;52.368;9.712;2023-05-07T07:24:05;8.82;;;7.93;;
55067;SDS011;40965;52.368;9.712;2023-05-07T07:26:31;7.78;;;7.05;;
55067;SDS011;40965;52.368;9.712;2023-05-07T07:29:20;9.00;;;8.13;;
55067;SDS011;40965;52.368;9.712;2023-05-07T07:31:51;9.43;;;8.40;;
55067;SDS011;40965;52.368;9.712;2023-05-07T07:34:21;10.80;;;9.70;;
55067;SDS011;40965;52.368;9.712;2023-05-07T07:36:47;11.70;;;10.07;;
55067;SDS011;40965;52.368;9.712;2023-05-07T07:39:17;10.63;;;9.52;;
55067;SDS011;40965;52.368;9.712;2023-05-07T07:41:43;10.27;;;8.77;;
55067;SDS011;40965;52.368;9.712;2023-05-07T07:44:12;10.98;;;9.00;;
55067;SDS011;40965;52.368;9.712;2023-05-07T07:46:38;11.65;;;9.02;;
55067;SDS011;40965;52.368;9.712;2023-05-07T07:49:05;10.82;;;9.73;;
55067;SDS011;40965;52.368;9.712;2023-05-07T07:51:37;12.32;;;9.23;;
55067;SDS011;40965;52.368;9.712;2023-05-07T07:54:03;11.98;;;10.48;;
55067;SDS011;40965;52.368;9.712;2023-05-07T07:56:33;10.48;;;9.38;;
55067;SDS011;40965;52.368;9.712;2023-05-07T07:59:08;13.15;;;10.77;;
55067;SDS011;40965;52.368;9.712;2023-05-07T08:01:54;10.27;;;9.13;;
55067;SDS011;40965;52.368;9.712;2023-05-07T08:08:47;11.30;;;9.93;;
55067;SDS011;40965;52.368;9.712;2023-05-07T08:15:02;13.43;;;9.98;;
55067;SDS011;40965;52.368;9.712;2023-05-07T08:20:34;8.73;;;7.88;;
55067;SDS011;40965;52.368;9.712;2023-05-07T08:23:09;10.88;;;8.55;;
55067;SDS011;40965;52.368;9.712;2023-05-07T08:25:36;9.05;;;8.15;;
55067;SDS011;40965;52.368;9.712;2023-05-07T08:28:02;10.15;;;9.15;;
55067;SDS011;40965;52.368;9.712;2023-05-07T08:30:29;10.23;;;9.18;;
55067;SDS011;40965;52.368;9.712;2023-05-07T08:32:56;14.07;;;10.77;;
55067;SDS011;40965;52.368;9.712;2023-05-07T08:35:23;13.68;;;11.40;;
55067;SDS011;40965;52.368;9.712;2023-05-07T08:37:50;12.15;;;10.95;;
55067;SDS011;40965;52.368;9.712;2023-05-07T08:40:17;12.18;;;9.90;;
55067;SDS011;40965;52.368;9.712;2023-05-07T08:42:43;13.05;;;9.80;;
55067;SDS011;40965;52.368;9.712;2023-05-07T08:45:11;10.82;;;8.40;;
55067;SDS011;40965;52.368;9.712;2023-05-07T08:47:43;8.48;;;7.43;;
55067;SDS011;40965;52.368;9.712;2023-05-07T08:50:12;16.13;;;11.32;;
55067;SDS011;40965;52.368;9.712;2023-05-07T08:52:42;10.52;;;8.57;;
55067;SDS011;40965;52.368;9.712;2023-05-07T08:55:09;11.15;;;9.77;;
55067;SDS011;40965;52.368;9.712;2023-05-07T08:57:36;8.75;;;7.95;;
55067;SDS011;40965;52.368;9.712;2023-05-07T09:00:04;11.25;;;9.57;;
55067;SDS011;40965;52.368;9.712;2023-05-07T09:02:32;10.68;;;8.45;;
55067;SDS011;40965;52.368;9.712;2023-05-07T09:05:04;8.90;;;7.97;;
55067;SDS011;40965;52.368;9.712;2023-05-07T09:07:31;9.52;;;8.23;;
55067;SDS011;40965;52.368;9.712;2023-05-07T09:10:00;9.85;;;8.85;;
55067;SDS011;40965;52.368;9.712;2023-05-07T09:12:29;10.48;;;9.10;;
55067;SDS011;40965;52.368;9.712;2023-05-07T09:14:56;10.88;;;8.93;;
55067;SDS011;40965;52.368;9.712;2023-05-07T09:17:22;10.20;;;9.18;;
55067;SDS011;40965;52.368;9.712;2023-05-07T09:19:50;11.30;;;10.10;;
55067;SDS011;40965;52.368;9.712;2023-05-07T09:22:18;9.07;;;8.27;;
55067;SDS011;40965;52.368;9.712;2023-05-07T09:24:48;9.30;;;8.40;;
55067;SDS011;40965;52.368;9.712;2023-05-07T09:27:17;8.20;;;7.47;;
55067;SDS011;40965;52.368;9.712;2023-05-07T09:29:44;9.45;;;7.90;;
55067;SDS011;40965;52.368;9.712;2023-05-07T09:32:11;9.90;;;8.82;;
55067;SDS011;40965;52.368;9.712;2023-05-07T09:34:38;10.93;;;8.35;;
55067;SDS011;40965;52.368;9.712;2023-05-07T09:37:05;9.23;;;7.25;;
55067;SDS011;40965;52.368;9.712;2023-05-07T09:39:39;8.52;;;7.72;;
55067;SDS011;40965;52.368;9.712;2023-05-07T09:42:07;10.13;;;8.27;;
55067;SDS011;40965;52.368;9.712;2023-05-07T09:44:34;9.48;;;8.50;;
55067;SDS011;40965;52.368;9.712;2023-05-07T09:47:01;7.72;;;6.93;;
55067;SDS011;40965;52.368;9.712;2023-05-07T09:49:33;8.38;;;7.25;;
55067;SDS011;40965;52.368;9.712;2023-05-07T09:52:02;9.27;;;8.27;;
55067;SDS011;40965;52.368;9.712;2023-05-07T09:54:33;10.52;;;7.78;;
55067;SDS011;40965;52.368;9.712;2023-05-07T09:57:09;8.77;;;7.90;;
55067;SDS011;40965;52.368;9.712;2023-05-07T09:59:57;8.95;;;8.05;;
55067;SDS011;40965;52.368;9.712;2023-05-07T10:08:48;8.60;;;7.43;;
55067;SDS011;40965;52.368;9.712;2023-05-07T10:11:51;8.60;;;7.80;;
55067;SDS011;40965;52.368;9.712;2023-05-07T10:14:38;9.48;;;8.43;;
55067;SDS011;40965;52.368;9.712;2023-05-07T10:17:26;11.20;;;8.95;;
55067;SDS011;40965;52.368;9.712;2023-05-07T10:41:14;9.23;;;8.32;;
55067;SDS011;40965;52.368;9.712;2023-05-07T10:43:42;9.88;;;8.68;;
55067;SDS011;40965;52.368;9.712;2023-05-07T10:46:21;8.10;;;7.22;;
55067;SDS011;40965;52.368;9.712;2023-05-07T10:51:38;8.30;;;7.45;;
55067;SDS011;40965;52.368;9.712;2023-05-07T10:56:40;7.00;;;6.38;;
55067;SDS011;40965;52.368;9.712;2023-05-07T11:01:50;7.70;;;6.90;;
55067;SDS011;40965;52.368;9.712;2023-05-07T11:04:23;8.48;;;7.68;;
55067;SDS011;40965;52.368;9.712;2023-05-07T11:12:45;8.43;;;7.65;;
55067;SDS011;40965;52.368;9.712;2023-05-07T11:17:55;6.47;;;5.95;;
55067;SDS011;40965;52.368;9.712;2023-05-07T11:20:49;6.43;;;5.82;;
55067;SDS011;40965;52.368;9.712;2023-05-07T11:26:01;6.70;;;6.10;;
55067;SDS011;40965;52.368;9.712;2023-05-07T11:28:39;7.45;;;6.55;;
55067;SDS011;40965;52.368;9.712;2023-05-07T11:31:09;6.78;;;6.20;;
55067;SDS011;40965;52.368;9.712;2023-05-07T11:33:37;6.60;;;6.00;;
55067;SDS011;40965;52.368;9.712;2023-05-07T11:36:05;6.07;;;5.50;;
55067;SDS011;40965;52.368;9.712;2023-05-07T11:38:34;5.70;;;5.13;;
55067;SDS011;40965;52.368;9.712;2023-05-07T11:41:02;6.72;;;6.00;;
55067;SDS011;40965;52.368;9.712;2023-05-07T11:43:33;6.43;;;5.40;;
55067;SDS011;40965;52.368;9.712;2023-05-07T11:46:10;7.93;;;6.40;;
55067;SDS011;40965;52.368;9.712;2023-05-07T11:48:39;5.93;;;5.43;;
55067;SDS011;40965;52.368;9.712;2023-05-07T11:51:09;5.82;;;5.32;;
55067;SDS011;40965;52.368;9.712;2023-05-07T11:53:37;6.50;;;5.85;;
55067;SDS011;40965;52.368;9.712;2023-05-07T11:56:09;5.72;;;5.22;;
55067;SDS011;40965;52.368;9.712;2023-05-07T11:58:41;6.35;;;5.78;;
55067;SDS011;40965;52.368;9.712;2023-05-07T12:01:09;6.35;;;5.85;;
55067;SDS011;40965;52.368;9.712;2023-05-07T12:03:41;5.57;;;5.13;;
55067;SDS011;40965;52.368;9.712;2023-05-07T12:06:14;6.30;;;5.43;;
55067;SDS011;40965;52.368;9.712;2023-05-07T12:08:43;6.70;;;5.07;;
55067;SDS011;40965;52.368;9.712;2023-05-07T12:11:29;5.85;;;5.30;;
55067;SDS011;40965;52.368;9.712;2023-05-07T12:13:56;6.38;;;5.78;;
55067;SDS011;40965;52.368;9.712;2023-05-07T12:16:23;5.57;;;5.03;;
55067;SDS011;40965;52.368;9.712;2023-05-07T12:18:50;6.60;;;5.97;;
55067;SDS011;40965;52.368;9.712;2023-05-07T12:21:20;5.32;;;4.82;;
55067;SDS011;40965;52.368;9.712;2023-05-07T12:23:46;6.25;;;5.75;;
55067;SDS011;40965;52.368;9.712;2023-05-07T12:26:14;5.82;;;5.03;;
55067;SDS011;40965;52.368;9.712;2023-05-07T12:28:40;5.20;;;4.80;;
55067;SDS011;40965;52.368;9.712;2023-05-07T12:31:07;5.45;;;4.80;;
55067;SDS011;40965;52.368;9.712;2023-05-07T12:33:34;5.43;;;5.03;;
55067;SDS011;40965;52.368;9.712;2023-05-07T12:36:07;6.03;;;5.10;;
55067;SDS011;40965;52.368;9.712;2023-05-07T12:38:35;4.63;;;4.32;;
55067;SDS011;40965;52.368;9.712;2023-05-07T12:41:08;4.63;;;4.22;;
55067;SDS011;40965;52.368;9.712;2023-05-07T12:43:37;5.40;;;4.90;;
55067;SDS011;40965;52.368;9.712;2023-05-07T12:46:04;5.07;;;4.68;;
55067;SDS011;40965;52.368;9.712;2023-05-07T12:48:35;4.38;;;4.00;;
55067;SDS011;40965;52.368;9.712;2023-05-07T12:51:04;5.20;;;4.70;;
55067;SDS011;40965;52.368;9.712;2023-05-07T12:53:32;4.40;;;3.75;;
55067;SDS011;40965;52.368;9.712;2023-05-07T12:55:59;5.78;;;4.28;;
55067;SDS011;40965;52.368;9.712;2023-05-07T12:58:28;6.00;;;4.75;;
55067;SDS011;40965;52.368;9.712;2023-05-07T13:00:57;5.22;;;4.72;;
55067;SDS011;40965;52.368;9.712;2023-05-07T13:03:30;5.03;;;4.57;;
55067;SDS011;40965;52.368;9.712;2023-05-07T13:06:00;4.72;;;4.32;;
55067;SDS011;40965;52.368;9.712;2023-05-07T13:09:02;5.43;;;4.88;;
55067;SDS011;40965;52.368;9.712;2023-05-07T13:11:44;4.70;;;4.18;;
55067;SDS011;40965;52.368;9.712;2023-05-07T13:14:42;6.03;;;5.50;;
55067;SDS011;40965;52.368;9.712;2023-05-07T13:17:33;7.88;;;5.72;;
55067;SDS011;40965;52.368;9.712;2023-05-07T13:20:22;8.13;;;5.93;;
55067;SDS011;40965;52.368;9.712;2023-05-07T13:23:16;5.38;;;4.97;;
55067;SDS011;40965;52.368;9.712;2023-05-07T13:26:22;6.68;;;6.05;;
55067;SDS011;40965;52.368;9.712;2023-05-07T13:29:20;5.75;;;5.35;;
55067;SDS011;40965;52.368;9.712;2023-05-07T13:31:53;6.30;;;5.78;;
55067;SDS011;40965;52.368;9.712;2023-05-07T13:34:21;4.82;;;4.53;;
55067;SDS011;40965;52.368;9.712;2023-05-07T13:36:53;4.85;;;4.47;;
55067;SDS011;40965;52.368;9.712;2023-05-07T13:39:34;6.18;;;5.72;;
55067;SDS011;40965;52.368;9.712;2023-05-07T13:42:01;5.28;;;4.82;;
55067;SDS011;40965;52.368;9.712;2023-05-07T13:44:30;5.90;;;5.43;;
55067;SDS011;40965;52.368;9.712;2023-05-07T13:46:57;5.57;;;5.07;;
55067;SDS011;40965;52.368;9.712;2023-05-07T13:49:27;5.05;;;4.75;;
55067;SDS011;40965;52.368;9.712;2023-05-07T13:52:02;5.55;;;5.15;;
55067;SDS011;40965;52.368;9.712;2023-05-07T13:54:31;5.45;;;4.95;;
55067;SDS011;40965;52.368;9.712;2023-05-07T13:56:58;5.72;;;5.32;;
55067;SDS011;40965;52.368;9.712;2023-05-07T13:59:28;5.78;;;5.38;;
55067;SDS011;40965;52.368;9.712;2023-05-07T14:01:58;5.57;;;5.22;;
55067;SDS011;40965;52.368;9.712;2023-05-07T14:04:30;6.35;;;5.85;;
55067;SDS011;40965;52.368;9.712;2023-05-07T14:07:07;6.03;;;5.63;;
55067;SDS011;40965;52.368;9.712;2023-05-07T14:09:34;6.00;;;5.53;;
55067;SDS011;40965;52.368;9.712;2023-05-07T14:12:00;5.38;;;4.88;;
55067;SDS011;40965;52.368;9.712;2023-05-07T14:14:27;5.55;;;5.10;;
55067;SDS011;40965;52.368;9.712;2023-05-07T14:16:54;5.50;;;5.10;;
55067;SDS011;40965;52.368;9.712;2023-05-07T14:19:21;5.32;;;4.82;;
55067;SDS011;40965;52.368;9.712;2023-05-07T14:21:49;6.47;;;5.05;;
55067;SDS011;40965;52.368;9.712;2023-05-07T14:24:15;4.63;;;4.28;;
55067;SDS011;40965;52.368;9.712;2023-05-07T14:29:24;4.90;;;4.50;;
55067;SDS011;40965;52.368;9.712;2023-05-07T14:31:54;4.65;;;4.35;;
55067;SDS011;40965;52.368;9.712;2023-05-07T14:34:20;4.22;;;3.92;;
55067;SDS011;40965;52.368;9.712;2023-05-07T14:36:47;4.40;;;4.10;;
55067;SDS011;40965;52.368;9.712;2023-05-07T14:39:17;5.15;;;4.53;;
55067;SDS011;40965;52.368;9.712;2023-05-07T14:44:33;5.00;;;4.50;;
55067;SDS011;40965;52.368;9.712;2023-05-07T14:51:10;5.90;;;5.32;;
55067;SDS011;40965;52.368;9.712;2023-05-07T14:54:14;5.35;;;4.88;;
55067;SDS011;40965;52.368;9.712;2023-05-07T14:57:35;4.57;;;4.18;;
55067;SDS011;40965;52.368;9.712;2023-05-07T15:00:30;4.75;;;4.35;;
55067;SDS011;40965;52.368;9.712;2023-05-07T15:03:10;6.10;;;3.93;;
55067;SDS011;40965;52.368;9.712;2023-05-07T15:05:38;5.55;;;5.05;;
55067;SDS011;40965;52.368;9.712;2023-05-07T15:08:07;5.75;;;5.25;;
55067;SDS011;40965;52.368;9.712;2023-05-07T15:10:49;5.25;;;4.85;;
55067;SDS011;40965;52.368;9.712;2023-05-07T15:13:18;6.03;;;5.53;;
55067;SDS011;40965;52.368;9.712;2023-05-07T15:15:54;6.07;;;5.20;;
55067;SDS011;40965;52.368;9.712;2023-05-07T15:18:25;6.20;;;5.30;;
55067;SDS011;40965;52.368;9.712;2023-05-07T15:21:09;5.72;;;4.95;;
55067;SDS011;40965;52.368;9.712;2023-05-07T15:23:53;5.80;;;5.30;;
55067;SDS011;40965;52.368;9.712;2023-05-07T15:26:42;5.95;;;5.40;;
55067;SDS011;40965;52.368;9.712;2023-05-07T15:29:09;4.82;;;4.47;;
55067;SDS011;40965;52.368;9.712;2023-05-07T15:31:36;6.25;;;5.65;;
55067;SDS011;40965;52.368;9.712;2023-05-07T15:34:06;5.25;;;4.75;;
55067;SDS011;40965;52.368;9.712;2023-05-07T15:36:36;5.07;;;4.68;;
55067;SDS011;40965;52.368;9.712;2023-05-07T15:39:20;4.53;;;4.20;;
55067;SDS011;40965;52.368;9.712;2023-05-07T15:41:51;5.38;;;4.88;;
55067;SDS011;40965;52.368;9.712;2023-05-07T15:44:19;5.45;;;4.95;;
55067;SDS011;40965;52.368;9.712;2023-05-07T15:46:52;7.03;;;4.57;;
55067;SDS011;40965;52.368;9.712;2023-05-07T15:49:25;5.13;;;4.72;;
55067;SDS011;40965;52.368;9.712;2023-05-07T15:51:52;7.35;;;6.32;;
55067;SDS011;40965;52.368;9.712;2023-05-07T15:54:20;5.70;;;5.20;;
55067;SDS011;40965;52.368;9.712;2023-05-07T15:56:55;6.07;;;5.47;;
55067;SDS011;40965;52.368;9.712;2023-05-07T15:59:26;7.60;;;5.53;;
55067;SDS011;40965;52.368;9.712;2023-05-07T16:01:57;8.88;;;5.72;;